Map

Track Data

SID SEASON NUMBER BASIN SUBBASIN NAME ISO_TIME NATURE LAT LON WMO_WIND WMO_PRES WMO_AGENCY TRACK_TYPE DIST2LAND LANDFALL IFLAG USA_AGENCY USA_ATCF_ID USA_LAT USA_LON USA_RECORD USA_STATUS USA_WIND USA_PRES USA_SSHS USA_R34_NE USA_R34_SE USA_R34_SW USA_R34_NW USA_R50_NE USA_R50_SE USA_R50_SW USA_R50_NW USA_R64_NE USA_R64_SE USA_R64_SW USA_R64_NW USA_POCI USA_ROCI USA_RMW USA_EYE TOKYO_LAT TOKYO_LON TOKYO_GRADE TOKYO_WIND TOKYO_PRES TOKYO_R50_DIR TOKYO_R50_LONG TOKYO_R50_SHORT TOKYO_R30_DIR TOKYO_R30_LONG TOKYO_R30_SHORT TOKYO_LAND CMA_LAT CMA_LON CMA_CAT CMA_WIND CMA_PRES HKO_LAT HKO_LON HKO_CAT HKO_WIND HKO_PRES NEWDELHI_LAT NEWDELHI_LON NEWDELHI_GRADE NEWDELHI_WIND NEWDELHI_PRES NEWDELHI_CI NEWDELHI_DP NEWDELHI_POCI REUNION_LAT REUNION_LON REUNION_TYPE REUNION_WIND REUNION_PRES REUNION_TNUM REUNION_CI REUNION_RMW REUNION_R34_NE REUNION_R34_SE REUNION_R34_SW REUNION_R34_NW REUNION_R50_NE REUNION_R50_SE REUNION_R50_SW REUNION_R50_NW REUNION_R64_NE REUNION_R64_SE REUNION_R64_SW REUNION_R64_NW BOM_LAT BOM_LON BOM_TYPE BOM_WIND BOM_PRES BOM_TNUM BOM_CI BOM_RMW BOM_R34_NE BOM_R34_SE BOM_R34_SW BOM_R34_NW BOM_R50_NE BOM_R50_SE BOM_R50_SW BOM_R50_NW BOM_R64_NE BOM_R64_SE BOM_R64_SW BOM_R64_NW BOM_ROCI BOM_POCI BOM_EYE BOM_POS_METHOD BOM_PRES_METHOD NADI_LAT NADI_LON NADI_CAT NADI_WIND NADI_PRES WELLINGTON_LAT WELLINGTON_LON WELLINGTON_WIND WELLINGTON_PRES DS824_LAT DS824_LON DS824_STAGE DS824_WIND DS824_PRES TD9636_LAT TD9636_LON TD9636_STAGE TD9636_WIND TD9636_PRES TD9635_LAT TD9635_LON TD9635_WIND TD9635_PRES TD9635_ROCI NEUMANN_LAT NEUMANN_LON NEUMANN_CLASS NEUMANN_WIND NEUMANN_PRES MLC_LAT MLC_LON MLC_CLASS MLC_WIND MLC_PRES USA_GUST BOM_GUST BOM_GUST_PER REUNION_GUST REUNION_GUST_PER USA_SEAHGT USA_SEARAD_NE USA_SEARAD_SE USA_SEARAD_SW USA_SEARAD_NW STORM_SPEED STORM_DIR
1931080S16070 1931 14 SI MM NOT_NAMED 1931-03-21 06:00:00 NR -15.9000 69.8000 reunion main 1360 1350 _____O________ -1 -15.9000 69.8000 99 9.90000 2 253
1931080S16070 1931 14 SI MM NOT_NAMED 1931-03-21 09:00:00 NR -15.9290 69.7036 main 1350 1336 _____P________ -1 -15.9290 69.7036 99 2 251
1931080S16070 1931 14 SI MM NOT_NAMED 1931-03-21 12:00:00 NR -15.9672 69.6010 main 1336 1326 _____P________ -1 -15.9672 69.6010 99 2 246
1931080S16070 1931 14 SI MM NOT_NAMED 1931-03-21 15:00:00 NR -16.0236 69.4858 main 1326 1311 _____P________ -1 -16.0236 69.4858 99 3 240
1931080S16070 1931 14 SI MM NOT_NAMED 1931-03-21 18:00:00 NR -16.1075 69.3519 main 1311 1287 _____P________ -1 -16.1075 69.3519 99 3 234
1931080S16070 1931 14 SI MM NOT_NAMED 1931-03-21 21:00:00 NR -16.2280 69.1928 main 1287 1259 _____P________ -1 -16.2280 69.1928 99 4 229
1931080S16070 1931 14 SI MM NOT_NAMED 1931-03-22 00:00:00 NR -16.3942 69.0022 main 1259 1231 _____P________ -1 -16.3942 69.0022 99 6 226
1931080S16070 1931 14 SI MM NOT_NAMED 1931-03-22 03:00:00 NR -16.6152 68.7735 main 1231 1189 _____P________ -1 -16.6152 68.7735 99 7 224
1931080S16070 1931 14 SI MM NOT_NAMED 1931-03-22 06:00:00 NR -16.9000 68.5000 reunion main 1189 1148 _____O________ -1 -16.9000 68.5000 99 9.90000 9 222
1931080S16070 1931 14 SI MM NOT_NAMED 1931-03-22 09:00:00 NR -17.2546 68.1790 main 1144 1093 _____P________ -1 -17.2546 68.1790 99 10 220
1931080S16070 1931 14 SI MM NOT_NAMED 1931-03-22 12:00:00 NR -17.6727 67.8240 main 1090 1047 _____P________ -1 -17.6727 67.8240 99 11 218
1931080S16070 1931 14 SI MM NOT_NAMED 1931-03-22 15:00:00 NR -18.1449 67.4531 main 1047 993 _____P________ -1 -18.1449 67.4531 99 12 215
1931080S16070 1931 14 SI MM NOT_NAMED 1931-03-22 18:00:00 NR -18.6620 67.0841 main 990 949 _____P________ -1 -18.6620 67.0841 99 13 212
1931080S16070 1931 14 SI MM NOT_NAMED 1931-03-22 21:00:00 NR -19.2149 66.7355 main 939 899 _____P________ -1 -19.2149 66.7355 99 13 209
1931080S16070 1931 14 SI MM NOT_NAMED 1931-03-23 00:00:00 NR -19.7947 66.4259 main 899 875 _____P________ -1 -19.7947 66.4259 99 13 204
1931080S16070 1931 14 SI MM NOT_NAMED 1931-03-23 03:00:00 NR -20.3926 66.1743 main 875 855 _____P________ -1 -20.3926 66.1743 99 13 198
1931080S16070 1931 14 SI MM NOT_NAMED 1931-03-23 06:00:00 NR -21.0000 66.0000 reunion main 856 856 _____O________ -1 -21.0000 66.0000 99 9.90000 13 189
1931080S16070 1931 14 SI MM NOT_NAMED 1931-03-23 09:00:00 NR -21.6430 65.9645 main 863 863 _____P________ -1 -21.6430 65.9645 99 13 0
1931080S16070 1931 14 SI MM NOT_NAMED 1931-03-23 12:00:00 NR -22.3119 66.0058 main 878 878 _____P________ -1 -22.3119 66.0058 99 14 174
1931080S16070 1931 14 SI MM NOT_NAMED 1931-03-23 15:00:00 NR -22.9896 66.1106 main 908 908 _____P________ -1 -22.9896 66.1106 99 14 170
1931080S16070 1931 14 SI MM NOT_NAMED 1931-03-23 18:00:00 NR -23.6586 66.2653 main 954 954 _____P________ -1 -23.6586 66.2653 99 14 166
1931080S16070 1931 14 SI MM NOT_NAMED 1931-03-23 21:00:00 NR -24.3015 66.4562 main 998 998 _____P________ -1 -24.3015 66.4562 99 13 164
1931080S16070 1931 14 SI MM NOT_NAMED 1931-03-24 00:00:00 NR -24.9010 66.6688 main 1045 1045 _____P________ -1 -24.9010 66.6688 99 12 161
1931080S16070 1931 14 SI MM NOT_NAMED 1931-03-24 03:00:00 NR -25.4395 66.8884 main 1088 1088 _____P________ -1 -25.4395 66.8884 99 11 159
1931080S16070 1931 14 SI MM NOT_NAMED 1931-03-24 06:00:00 NR -25.9000 67.1000 reunion main 1133 1133 _____O________ -1 -25.9000 67.1000 99 9.90000 9 156
1931080S16070 1931 14 SI MM NOT_NAMED 1931-03-24 09:00:00 NR -26.2701 67.2910 main 1173 1173 _____P________ -1 -26.2701 67.2910 99 7 154
1931080S16070 1931 14 SI MM NOT_NAMED 1931-03-24 12:00:00 NR -26.5571 67.4610 main 1208 1208 _____P________ -1 -26.5571 67.4610 99 6 150
1931080S16070 1931 14 SI MM NOT_NAMED 1931-03-24 15:00:00 NR -26.7729 67.6127 main 1228 1228 _____P________ -1 -26.7729 67.6127 99 5 145
1931080S16070 1931 14 SI MM NOT_NAMED 1931-03-24 18:00:00 NR -26.9294 67.7490 main 1243 1243 _____P________ -1 -26.9294 67.7490 99 4 139
1931080S16070 1931 14 SI MM NOT_NAMED 1931-03-24 21:00:00 NR -27.0385 67.8728 main 1265 1265 _____P________ -1 -27.0385 67.8728 99 3 131
1931080S16070 1931 14 SI MM NOT_NAMED 1931-03-25 00:00:00 NR -27.1121 67.9871 main 1280 1280 _____P________ -1 -27.1121 67.9871 99 2 122
1931080S16070 1931 14 SI MM NOT_NAMED 1931-03-25 03:00:00 NR -27.1620 68.0951 main 1294 1294 _____P________ -1 -27.1620 68.0951 99 2 115
1931080S16070 1931 14 SI MM NOT_NAMED 1931-03-25 06:00:00 NR -27.2000 68.2000 reunion main 1302 _____O________ -1 -27.2000 68.2000 99 9.90000 2 111

About IBTrACS Database

This database is a web-friendly format of International Best Track Archive for Climate Stewardship (IBTrACS), a global best track data archive curated by NOAA dating back to 1842.

Updated: 2021-12-03